METAR-berichten van nabijgelegen luchthavens

 

EHBK - Maastricht-Aachen Airport
Afstand tot station: WZW 9km
Bijgewerkt: 21-01-2019 12:25
Helder
Helder
 Wind vanuit ZZW
Wind: ZZW 9 km/h
Temperatuur: -1°C
Wind Chill: -4°C
Dauwpunt: -4°C
Vochtigheid: 80%
Luchtdruk: 1022 hPa
Bewolking: Helder
Zicht: 9 km
2019/01/21 11:25 EHBK 211125Z AUTO 20005KT 170V230 9000 NCD M01/M04 Q1022 NOSIG
ETNG - NATO Air Base Geilenkirchen
Afstand tot station: ONO 11km
Bijgewerkt: 21-01-2019 11:50
Helder
Helder
 Wind vanuit W
Wind: W 4 km/h
Temperatuur: 1°C
Dauwpunt: -4°C
Vochtigheid: 70%
Luchtdruk: 1023 hPa
Overzicht: Helder
Zicht: groter dan 10 km
2019/01/21 10:50 ETNG 211050Z 26002KT CAVOK 01/M04 Q1023 NOSIG